CYQD

The Pas Airport

The Pas, Manitoba, Canada
METAR CYQD 251925Z AUTO 30012G19KT 9SM -RA BKN034 BKN042 OVC060 07/02 A2989 RMK SLP136
Observed Flight Rules
Sep-25 @ 19:25 UTC (16 minutes ago) Visual Flight Rules
Wind Visibility Clouds Conditions
300° at 12 knots
 Gusting to 19 knots
9 miles
  • Broken at 3,400' AGL
  • Broken at 4,200' AGL
  • Overcast at 6,000' AGL
  • Light Rain
Temperatures Readings
Current 7°C / 45°F
Dewpoint 2°C / 36°F
Humidity 71%
Altimeter 29.89" Hg
Pressure 1013.6 hPa
Elevation 271
METAR CYQD 251925Z AUTO 30012G19KT 9SM -RA BKN034 BKN042 OVC060 07/02 A2989 RMK SLP136
Observed Flight Rules
Sep-25 @ 19:25 UTC
(16 minutes ago)
VFR
Wind Visibility
300° at 12 knots
 Gusting to 19 knots
9 miles
Clouds
  • Broken at 3,400' AGL
  • Broken at 4,200' AGL
  • Overcast at 6,000' AGL
Conditions
  • Light Rain
Temperature Dewpoint
7°C / 45°F 2°C / 36°F
Humidity Altimeter Pressure
71% 29.89" Hg 1013.6 hPa